Flight Track Log - Related Links

Times and Time Zones

All times are in EDT time to prevent confusion due to time zone crossing. See the UCA4833 flight status page for this flight to view local times or setup timezone preferences in your user account.

Time Position Orientation Groundspeed Altitude Reporting Facility
EDT Latitude Longitude Course Direction KTS MPH feet Rate Location/Type
Thu 05:19:22 PM 40.6500 -74.1833 278° West 143 165 1,300  Level New York TRACON
Thu 05:20:22 PM 40.6500 -74.2333 270° West 176 203 2,200 1,200 Climbing New York TRACON
Thu 05:21:22 PM 40.6667 -74.3000 288° West 179 206 3,700 1,350 Climbing New York TRACON
Thu 05:22:22 PM 40.6667 -74.3667 270° West 184 212 4,900 1,350 Climbing New York TRACON
Thu 05:23:22 PM 40.6833 -74.4167 294° West 182 209 6,400 1,397 Climbing New York TRACON
Thu 05:24:00 PM 40.7403 -74.6128 278° West  Level FlightAware Approximate
Thu 05:24:18 PM 40.7253 -74.4458 332° Northwest 186 214 7,600  Level New York Center
Thu 05:25:18 PM 40.7356 -74.5147 281° West 166 191 8,800 1,250 Climbing New York Center
Thu 05:26:18 PM 40.7439 -74.5811 279° West 179 206 10,100 1,100 Climbing New York Center
Thu 05:27:18 PM 40.7503 -74.6389 278° West 179 206 11,000 500 Climbing New York Center
Thu 05:28:18 PM 40.7497 -74.7236 270° West 197 227 11,100 700 Climbing New York Center
Thu 05:29:18 PM 40.7350 -74.7858 253° West 212 244 12,400 1,250 Climbing New York Center
Thu 05:30:18 PM 40.7242 -74.8619 259° West 199 229 13,600 800 Climbing New York Center
Thu 05:31:18 PM 40.7111 -74.9350 257° West 199 229 14,000 200 Climbing New York Center
Thu 05:32:18 PM 40.6981 -75.0083 257° West 218 251 14,000  Level New York Center
Thu 05:33:18 PM 40.6822 -75.1031 258° West 241 277 14,000  Level New York Center
Thu 05:34:18 PM 40.6664 -75.1869 256° West 241 277 14,000  Level New York Center
Thu 05:35:19 PM 40.6531 -75.2681 258° West 241 277 14,000  Level New York Center
Thu 05:36:18 PM 40.6372 -75.3517 256° West 241 277 14,000  Level New York Center
Thu 05:37:18 PM 40.6236 -75.4356 258° West 235 270 14,000  Level New York Center
Thu 05:38:18 PM 40.6100 -75.5167 258° West 235 270 14,000  Level New York Center
Thu 05:39:18 PM 40.5964 -75.5978 258° West 240 276 14,000  Level New York Center
Thu 05:40:18 PM 40.5825 -75.6761 257° West 240 276 14,000  Level New York Center
Thu 05:41:18 PM 40.5403 -75.7414 230° Southwest 235 270 14,000  Level New York Center
Thu 05:42:18 PM 40.4961 -75.7981 224° Southwest 240 276 14,000  Level New York Center
Thu 05:43:18 PM 40.4453 -75.8653 225° Southwest 240 276 14,000  Level New York Center
Thu 05:44:18 PM 40.3989 -75.9275 226° Southwest 240 276 14,000  Level New York Center
Thu 05:45:18 PM 40.3569 -75.9842 226° Southwest 240 276 14,000  Level New York Center
Thu 05:46:18 PM 40.3119 -76.0569 231° Southwest 234 269 14,000  Level New York Center
Thu 05:47:18 PM 40.2800 -76.1172 235° Southwest 234 269 14,000  Level New York Center
Thu 05:48:18 PM 40.2389 -76.1956 236° Southwest 234 269 14,000 -200 Level New York Center
Thu 05:49:18 PM 40.2025 -76.2608 234° Southwest 234 269 13,600 -550 Descending New York Center
Thu 05:50:18 PM 40.1617 -76.3336 234° Southwest 244 281 12,900 -650 Descending New York Center
Thu 05:51:18 PM 40.1228 -76.4064 235° Southwest 249 287 12,300 -355 Descending New York Center
Thu 05:52:50 PM 40.0667 -76.5167 236° Southwest 235 270 12,000 -118 Descending Potomac TRACON
Thu 05:53:50 PM 40.0333 -76.5833 237° Southwest 233 268 12,000  Level Potomac TRACON
Thu 05:54:50 PM 39.9833 -76.6500 226° Southwest 229 264 12,000 -50 Level Potomac TRACON
Thu 05:55:51 PM 39.9500 -76.7167 237° Southwest 225 259 11,900 -50 Descending Potomac TRACON
Thu 05:56:51 PM 39.9167 -76.7833 237° Southwest 218 251 11,900  Level Potomac TRACON
Thu 05:57:45 PM 39.8833 -76.8500 237° Southwest 216 249 11,900 -263 Level Potomac TRACON
Thu 05:58:45 PM 39.8500 -76.9167 237° Southwest 219 252 11,400 -744 Descending Potomac TRACON
Thu 05:59:46 PM 39.8167 -76.9833 237° Southwest 228 262 10,400 -992 Descending Potomac TRACON
Thu 06:00:46 PM 39.7833 -77.0500 237° Southwest 233 268 9,400 -1,000 Descending Potomac TRACON
Thu 06:01:46 PM 39.7500 -77.1167 237° Southwest 232 267 8,400 -744 Descending Potomac TRACON
Thu 06:02:47 PM 39.7000 -77.1833 226° Southwest 231 266 7,900 -248 Descending Potomac TRACON
Thu 06:03:47 PM 39.6667 -77.2333 229° Southwest 225 259 7,900  Level Potomac TRACON
Thu 06:04:47 PM 39.6167 -77.3000 226° Southwest 225 259 7,900 -248 Level Potomac TRACON
Thu 06:05:48 PM 39.5667 -77.3500 218° Southwest 234 269 7,400 -744 Descending Potomac TRACON
Thu 06:06:48 PM 39.5167 -77.4000 218° Southwest 249 287 6,400 -1,048 Descending Potomac TRACON
Thu 06:07:54 PM 39.4333 -77.4333 197° South 247 284 5,200 -1,048 Descending Potomac TRACON
Thu 06:08:54 PM 39.3833 -77.4333 180° South 243 280 4,200 -650 Descending Potomac TRACON
Thu 06:09:54 PM 39.3167 -77.4333 180° South 222 255 3,900 -350 Descending Potomac TRACON
Thu 06:10:54 PM 39.2500 -77.4333 180° South 226 260 3,500 -526 Descending Potomac TRACON
Thu 06:11:48 PM 39.2000 -77.4333 180° South 227 261 2,900 -316 Descending Potomac TRACON
Thu 06:12:48 PM 39.1333 -77.4333 180° South 213 245 2,900 -149 Level Potomac TRACON
Thu 06:13:49 PM 39.0833 -77.4333 180° South 206 237 2,600 -645 Descending Potomac TRACON
Thu 06:14:49 PM 39.0167 -77.4333 180° South 177 204 1,600 -900 Descending Potomac TRACON
Thu 06:15:49 PM 38.9833 -77.4333 180° South 137 158 800 -800 Descending Potomac TRACON
Thu 06:17:00 PM 38.9474 -77.4599 90° East  Level Estimated

Login

Don't have an account? Register now (free) for customized features, flight alerts, and more!